createdAt,value
2019-04-27T00:00:45.850Z,5.10
2019-04-27T00:03:23.425Z,5.07
2019-04-27T00:06:05.335Z,4.87
2019-04-27T00:08:38.789Z,5.23
2019-04-27T00:11:23.898Z,5.03
2019-04-27T00:13:53.607Z,5.17
2019-04-27T00:16:33.828Z,5.43
2019-04-27T00:19:10.193Z,5.53
2019-04-27T00:21:43.202Z,5.70
2019-04-27T00:24:13.485Z,5.93
2019-04-27T00:26:43.361Z,5.83
2019-04-27T00:29:13.706Z,5.97
2019-04-27T00:31:43.497Z,5.70
2019-04-27T00:34:13.353Z,5.93
2019-04-27T00:36:59.539Z,6.30
2019-04-27T00:39:33.084Z,6.40
2019-04-27T00:42:03.202Z,6.30
2019-04-27T00:44:33.778Z,6.57
2019-04-27T00:47:03.632Z,6.40
2019-04-27T00:49:32.949Z,6.47
2019-04-27T00:52:03.636Z,6.00
2019-04-27T00:54:33.872Z,5.80
2019-04-27T00:57:20.602Z,6.40
2019-04-27T00:59:53.609Z,5.87
2019-04-27T01:02:29.962Z,6.10
2019-04-27T01:04:58.566Z,5.60
2019-04-27T01:07:27.241Z,5.60
2019-04-27T01:09:55.943Z,5.27
2019-04-27T01:12:24.809Z,5.60
2019-04-27T01:14:53.609Z,4.80
2019-04-27T01:17:22.421Z,5.23
2019-04-27T01:19:51.597Z,5.07
2019-04-27T01:22:20.266Z,5.10
2019-04-27T01:24:49.261Z,5.00
2019-04-27T01:27:19.842Z,4.57
2019-04-27T01:29:49.957Z,5.20
2019-04-27T01:32:20.753Z,4.70
2019-04-27T01:34:49.464Z,5.47
2019-04-27T01:37:20.906Z,4.80
2019-04-27T01:39:50.337Z,5.13
2019-04-27T01:42:19.466Z,4.90
2019-04-27T01:44:49.591Z,4.87
2019-04-27T01:47:18.780Z,5.40
2019-04-27T01:49:49.419Z,5.17
2019-04-27T01:52:19.415Z,5.50
2019-04-27T01:54:49.539Z,5.47
2019-04-27T01:57:19.397Z,5.77
2019-04-27T01:59:48.935Z,6.07
2019-04-27T02:02:34.809Z,5.63
2019-04-27T02:05:22.806Z,6.03
2019-04-27T02:07:51.451Z,6.63
2019-04-27T02:10:20.454Z,6.73
2019-04-27T02:12:49.182Z,6.87
2019-04-27T02:15:19.145Z,6.73
2019-04-27T02:17:50.692Z,5.40
2019-04-27T02:20:19.746Z,5.27
2019-04-27T03:21:56.339Z,5.40
2019-04-27T03:24:42.619Z,5.90
2019-04-27T03:27:12.761Z,4.77
2019-04-27T03:29:41.910Z,5.10
2019-04-27T03:32:12.590Z,5.47
2019-04-27T03:34:42.206Z,5.33
2019-04-27T03:37:11.359Z,5.47
2019-04-27T03:39:40.043Z,5.33
2019-04-27T03:42:10.369Z,5.60
2019-04-27T03:44:39.770Z,5.70
2019-04-27T03:47:09.984Z,6.40
2019-04-27T03:49:41.529Z,7.10
2019-04-27T03:52:23.149Z,7.00
2019-04-27T03:55:10.459Z,6.60
2019-04-27T03:57:43.319Z,6.80
2019-04-27T04:00:20.096Z,6.57
2019-04-27T04:02:50.255Z,6.00
2019-04-27T04:05:19.800Z,6.23
2019-04-27T04:07:50.416Z,7.03
2019-04-27T04:10:19.906Z,6.97
2019-04-27T04:13:02.383Z,6.83
2019-04-27T04:15:35.703Z,7.50
2019-04-27T04:18:04.374Z,7.90
2019-04-27T04:20:33.078Z,7.20
2019-04-27T04:23:03.364Z,5.73
2019-04-27T04:25:33.091Z,3.77
2019-04-27T04:28:02.148Z,3.73
2019-04-27T04:30:30.840Z,3.57
2019-04-27T04:33:00.061Z,3.40
2019-04-27T04:35:32.613Z,3.37
2019-04-27T04:38:00.218Z,3.30
2019-04-27T04:40:36.707Z,3.20
2019-04-27T04:43:10.774Z,7.47
2019-04-27T04:45:44.292Z,7.97
2019-04-27T04:48:14.619Z,9.30
2019-04-27T04:50:43.394Z,8.67
2019-04-27T04:53:12.799Z,9.33
2019-04-27T04:55:41.582Z,8.93
2019-04-27T04:58:10.263Z,9.30
2019-04-27T05:00:40.160Z,8.00
2019-04-27T05:03:09.518Z,9.10
2019-04-27T05:05:41.113Z,11.60
2019-04-27T05:08:09.121Z,9.73
2019-04-27T05:10:39.460Z,9.77
2019-04-27T05:13:09.333Z,10.03
2019-04-27T05:15:39.492Z,11.70
2019-04-27T05:18:09.104Z,12.77
2019-04-27T05:20:48.756Z,13.40
2019-04-27T05:23:18.642Z,13.30
2019-04-27T05:25:49.040Z,12.97
2019-04-27T05:28:18.709Z,12.03
2019-04-27T05:30:48.905Z,11.83
2019-04-27T05:33:18.716Z,11.90
2019-04-27T05:35:49.159Z,11.43
2019-04-27T05:38:19.292Z,11.77
2019-04-27T05:40:49.978Z,10.10
2019-04-27T05:43:20.181Z,9.13
2019-04-27T05:46:21.966Z,9.27
2019-04-27T05:48:50.665Z,9.10
2019-04-27T05:51:19.774Z,9.43
2019-04-27T05:53:49.528Z,10.23
2019-04-27T05:56:19.321Z,9.50
2019-04-27T05:58:49.113Z,9.83
2019-04-27T06:01:19.645Z,9.83
2019-04-27T06:03:49.812Z,9.93
2019-04-27T06:06:19.735Z,10.13
2019-04-27T06:08:49.500Z,9.50
2019-04-27T06:11:19.624Z,8.77
2019-04-27T06:13:49.236Z,9.00
2019-04-27T06:16:19.474Z,9.23
2019-04-27T06:18:49.345Z,9.20
2019-04-27T06:21:19.554Z,8.67
2019-04-27T06:23:48.811Z,9.80
2019-04-27T06:26:17.574Z,8.33
2019-04-27T06:28:46.264Z,9.23
2019-04-27T06:31:14.945Z,8.13
2019-04-27T06:33:43.645Z,7.87
2019-04-27T06:36:12.253Z,6.33
2019-04-27T06:38:40.957Z,7.70
2019-04-27T06:41:10.179Z,5.87
2019-04-27T06:43:40.614Z,5.20
2019-04-27T06:46:09.463Z,3.20
2019-04-27T06:48:39.466Z,2.57
2019-04-27T06:51:09.706Z,2.80
2019-04-27T06:53:39.426Z,2.67
2019-04-27T06:56:09.028Z,2.20
2019-04-27T06:58:40.552Z,2.03
2019-04-27T07:01:09.449Z,1.80
2019-04-27T07:03:39.516Z,2.10
2019-04-27T07:06:08.840Z,1.73
2019-04-27T07:08:39.901Z,1.60
2019-04-27T07:11:08.933Z,1.70
2019-04-27T07:13:39.097Z,1.80
2019-04-27T07:16:09.520Z,1.93
2019-04-27T07:18:39.697Z,1.80
2019-04-27T07:21:17.008Z,1.60
2019-04-27T07:23:40.717Z,1.73
2019-04-27T07:26:09.680Z,2.07
2019-04-27T07:28:39.267Z,2.50
2019-04-27T07:31:09.642Z,2.00
2019-04-27T07:33:39.593Z,1.80
2019-04-27T07:36:08.945Z,1.97
2019-04-27T07:38:39.391Z,2.10
2019-04-27T07:41:09.578Z,2.00
2019-04-27T07:43:54.741Z,1.73
2019-04-27T07:46:23.765Z,2.23
2019-04-27T07:48:52.370Z,2.30
2019-04-27T07:51:31.595Z,2.33
2019-04-27T07:53:51.907Z,2.57
2019-04-27T07:56:20.581Z,1.90
2019-04-27T07:58:49.496Z,4.20
2019-04-27T08:01:19.284Z,2.53
2019-04-27T08:03:49.057Z,1.90
2019-04-27T08:06:18.950Z,2.00
2019-04-27T08:08:49.235Z,3.63
2019-04-27T08:11:19.267Z,3.20
2019-04-27T08:13:49.014Z,1.70
2019-04-27T08:16:18.366Z,1.90
2019-04-27T08:18:49.631Z,2.20
2019-04-27T08:21:18.979Z,2.80
2019-04-27T08:23:49.026Z,2.67
2019-04-27T08:26:19.451Z,2.13
2019-04-27T08:28:52.526Z,2.20
2019-04-27T08:31:22.847Z,2.23
2019-04-27T08:33:51.518Z,2.40
2019-04-27T08:36:20.340Z,1.97
2019-04-27T08:38:49.058Z,2.10
2019-04-27T08:41:21.033Z,1.80
2019-04-27T08:43:48.843Z,1.70
2019-04-27T08:46:18.668Z,1.40
2019-04-27T08:48:49.016Z,1.20
2019-04-27T08:51:19.669Z,1.40
2019-04-27T08:53:50.076Z,1.30
2019-04-27T08:56:19.454Z,1.13
2019-04-27T08:58:49.700Z,1.10
2019-04-27T09:01:20.768Z,1.10
2019-04-27T09:03:49.615Z,1.00
2019-04-27T09:06:19.007Z,1.20
2019-04-27T09:08:49.761Z,1.03
2019-04-27T09:11:20.667Z,0.90
2019-04-27T09:13:54.026Z,1.00
2019-04-27T09:16:24.350Z,0.80
2019-04-27T09:18:54.599Z,0.80
2019-04-27T09:21:23.331Z,0.80
2019-04-27T09:23:52.010Z,0.70
2019-04-27T09:26:20.686Z,0.70
2019-04-27T09:28:49.542Z,0.80
2019-04-27T09:31:19.636Z,0.70
2019-04-27T09:33:48.364Z,0.73
2019-04-27T09:36:17.141Z,0.83
2019-04-27T09:38:46.536Z,0.80
2019-04-27T09:41:16.953Z,0.80
2019-04-27T09:43:46.591Z,0.80
2019-04-27T09:46:15.781Z,0.70
2019-04-27T09:48:46.478Z,0.70
2019-04-27T09:51:16.263Z,1.00
2019-04-27T09:53:45.843Z,1.10
2019-04-27T09:56:16.385Z,0.90
2019-04-27T09:58:47.012Z,1.00
2019-04-27T10:01:16.422Z,0.90
2019-04-27T10:03:46.441Z,1.00
2019-04-27T10:06:16.304Z,0.90
2019-04-27T10:08:45.046Z,1.20
2019-04-27T10:11:13.658Z,0.90
2019-04-27T10:13:42.347Z,1.10
2019-04-27T10:16:11.002Z,1.17
2019-04-27T10:18:39.703Z,1.23
2019-04-27T10:21:08.355Z,1.20
2019-04-27T10:23:38.464Z,1.17
2019-04-27T10:26:07.565Z,1.40
2019-04-27T10:28:37.265Z,1.10
2019-04-27T10:31:07.064Z,1.30
2019-04-27T10:33:35.980Z,1.27
2019-04-27T10:36:06.349Z,1.10
2019-04-27T10:38:35.995Z,1.40
2019-04-27T10:41:05.711Z,1.50
2019-04-27T10:43:35.111Z,1.33
2019-04-27T10:46:03.791Z,1.33
2019-04-27T10:48:32.836Z,1.63
2019-04-27T10:51:01.554Z,1.40
2019-04-27T10:53:30.237Z,1.67
2019-04-27T10:55:58.948Z,1.30
2019-04-27T10:58:27.736Z,1.20
2019-04-27T11:00:58.465Z,1.50
2019-04-27T11:03:46.188Z,1.60
2019-04-27T11:06:22.562Z,1.33
2019-04-27T11:08:51.582Z,1.17
2019-04-27T11:11:20.267Z,1.30
2019-04-27T11:13:48.945Z,1.40
2019-04-27T11:16:17.745Z,1.30
2019-04-27T11:18:47.098Z,1.30
2019-04-27T11:21:15.883Z,1.60
2019-04-27T11:23:45.958Z,1.40
2019-04-27T11:26:16.051Z,1.40
2019-04-27T11:28:46.326Z,1.10
2019-04-27T11:31:16.994Z,1.23
2019-04-27T11:33:46.446Z,1.30
2019-04-27T11:36:22.878Z,1.27
2019-04-27T11:38:56.556Z,1.20
2019-04-27T11:41:26.226Z,1.30
2019-04-27T11:43:56.550Z,1.20
2019-04-27T11:46:26.715Z,1.17
2019-04-27T11:48:58.040Z,1.07
2019-04-27T11:51:26.673Z,1.10
2019-04-27T11:53:55.476Z,1.23
2019-04-27T11:56:24.160Z,1.10
2019-04-27T11:58:52.938Z,1.20
2019-04-27T12:01:21.694Z,1.30
2019-04-27T12:03:50.369Z,1.20
2019-04-27T12:06:19.029Z,1.30
2019-04-27T12:08:47.719Z,1.10
2019-04-27T12:11:16.399Z,1.03
2019-04-27T12:13:46.116Z,1.20
2019-04-27T12:16:15.622Z,1.40
2019-04-27T12:18:48.888Z,1.07
2019-04-27T12:21:16.245Z,1.07
2019-04-27T12:23:47.065Z,1.10
2019-04-27T12:26:17.550Z,1.10
2019-04-27T12:28:48.183Z,1.20
2019-04-27T12:31:27.525Z,1.00
2019-04-27T12:33:56.182Z,1.00
2019-04-27T12:36:25.820Z,0.90
2019-04-27T12:38:56.579Z,1.20
2019-04-27T12:41:26.182Z,1.20
2019-04-27T12:43:56.095Z,1.00
2019-04-27T12:46:25.197Z,1.20
2019-04-27T12:48:55.311Z,1.20
2019-04-27T12:51:24.473Z,1.40
2019-04-27T12:54:05.872Z,1.30
2019-04-27T12:56:38.550Z,1.13
2019-04-27T12:59:11.904Z,1.10
2019-04-27T13:01:42.893Z,1.37
2019-04-27T13:04:13.619Z,1.23
2019-04-27T13:06:46.888Z,1.30
2019-04-27T13:09:15.455Z,1.20
2019-04-27T13:11:46.021Z,1.40
2019-04-27T13:14:16.632Z,1.07
2019-04-27T13:16:45.731Z,1.20
2019-04-27T13:19:16.659Z,1.50
2019-04-27T13:21:46.945Z,1.20
2019-04-27T13:24:15.810Z,1.33
2019-04-27T13:26:45.674Z,1.40
2019-04-27T13:29:16.510Z,1.50
2019-04-27T13:31:45.068Z,1.20
2019-04-27T13:34:13.751Z,1.40
2019-04-27T13:36:42.457Z,1.60
2019-04-27T13:39:11.251Z,1.37
2019-04-27T13:41:43.415Z,1.33
2019-04-27T13:44:12.467Z,1.30
2019-04-27T13:46:48.882Z,1.30
2019-04-27T13:49:37.070Z,1.30
2019-04-27T13:52:07.411Z,1.30
2019-04-27T13:54:36.091Z,1.33
2019-04-27T13:57:04.828Z,1.37
2019-04-27T13:59:33.781Z,1.17
2019-04-27T14:02:02.531Z,1.30
2019-04-27T14:04:31.529Z,1.10
2019-04-27T14:07:00.239Z,1.30
2019-04-27T14:09:30.689Z,1.30
2019-04-27T14:12:01.162Z,1.40
2019-04-27T14:14:29.849Z,1.10
2019-04-27T14:16:58.929Z,1.00
2019-04-27T14:19:28.262Z,1.20
2019-04-27T14:21:58.973Z,1.27
2019-04-27T14:24:42.791Z,1.47
2019-04-27T14:27:11.577Z,1.37
2019-04-27T14:29:40.351Z,1.40
2019-04-27T14:32:09.759Z,1.87
2019-04-27T14:34:38.453Z,1.93
2019-04-27T14:37:08.669Z,2.13
2019-04-27T14:39:38.983Z,2.03
2019-04-27T14:42:08.351Z,1.80
2019-04-27T14:44:38.830Z,2.13
2019-04-27T14:47:08.196Z,1.87
2019-04-27T14:49:36.872Z,2.10
2019-04-27T14:52:05.552Z,2.00
2019-04-27T14:54:47.375Z,1.87
2019-04-27T14:57:04.726Z,2.33
2019-04-27T14:59:33.714Z,2.50
2019-04-27T15:02:02.517Z,2.50
2019-04-27T15:04:31.771Z,1.93
2019-04-27T15:07:01.572Z,1.90
2019-04-27T15:09:30.726Z,1.80
2019-04-27T15:11:59.410Z,1.83
2019-04-27T15:14:28.087Z,1.77
2019-04-27T15:16:56.798Z,2.00
2019-04-27T15:19:27.123Z,2.20
2019-04-27T15:21:58.652Z,2.00
2019-04-27T15:24:26.651Z,2.40
2019-04-27T15:27:00.724Z,2.60
2019-04-27T15:29:27.498Z,2.53
2019-04-27T15:32:01.334Z,1.30
2019-04-27T15:34:35.509Z,1.30
2019-04-27T15:37:11.083Z,1.00
2019-04-27T15:39:48.524Z,1.10
2019-04-27T15:42:31.625Z,1.30
2019-04-27T15:45:00.306Z,1.30
2019-04-27T15:47:28.909Z,1.50
2019-04-27T15:49:59.000Z,1.50
2019-04-27T15:52:30.166Z,2.33
2019-04-27T15:54:58.211Z,1.23
2019-04-27T15:57:27.939Z,1.20
2019-04-27T15:59:58.377Z,1.00
2019-04-27T16:02:28.781Z,1.00
2019-04-27T16:04:58.298Z,1.10
2019-04-27T16:07:32.021Z,1.40
2019-04-27T16:10:02.647Z,1.33
2019-04-27T16:12:29.714Z,1.53
2019-04-27T16:14:58.654Z,1.70
2019-04-27T16:17:29.401Z,2.17
2019-04-27T16:19:58.129Z,2.27
2019-04-27T16:22:27.692Z,2.00
2019-04-27T16:24:58.002Z,2.83
2019-04-27T16:27:31.441Z,1.77
2019-04-27T16:29:57.873Z,1.90
2019-04-27T16:32:27.525Z,1.60
2019-04-27T16:34:56.245Z,3.00
2019-04-27T16:37:35.610Z,2.40
2019-04-27T16:40:08.398Z,2.10
2019-04-27T16:42:38.334Z,1.53
2019-04-27T16:45:08.620Z,2.03
2019-04-27T16:47:38.371Z,1.93
2019-04-27T16:50:08.319Z,1.70
2019-04-27T16:52:38.966Z,1.80
2019-04-27T16:55:08.630Z,1.70
2019-04-27T16:57:39.982Z,1.80
2019-04-27T17:00:10.938Z,2.10
2019-04-27T17:02:40.218Z,2.47
2019-04-27T17:05:09.379Z,3.10
2019-04-27T17:07:41.713Z,3.80
2019-04-27T17:10:09.402Z,2.60
2019-04-27T17:12:43.299Z,2.50
2019-04-27T17:15:19.613Z,1.97
2019-04-27T17:17:55.706Z,2.57
2019-04-27T17:20:24.425Z,2.60
2019-04-27T17:22:53.471Z,2.23
2019-04-27T17:25:23.427Z,2.20
2019-04-27T17:27:57.761Z,2.00
2019-04-27T17:30:24.546Z,1.50
2019-04-27T17:32:54.866Z,1.50
2019-04-27T17:35:23.563Z,2.07
2019-04-27T17:37:54.351Z,2.03
2019-04-27T17:40:22.634Z,1.90
2019-04-27T17:42:51.274Z,2.70
2019-04-27T17:45:21.700Z,2.20
2019-04-27T17:47:50.421Z,3.33
2019-04-27T17:50:25.057Z,2.00
2019-04-27T17:52:55.076Z,1.90
2019-04-27T17:55:24.434Z,2.20
2019-04-27T17:57:50.509Z,2.77
2019-04-27T18:00:20.086Z,2.50
2019-04-27T18:02:48.767Z,1.83
2019-04-27T18:05:17.951Z,2.37
2019-04-27T18:07:48.549Z,2.87
2019-04-27T18:10:21.138Z,2.10
2019-04-27T18:12:48.622Z,2.00
2019-04-27T18:15:18.027Z,1.97
2019-04-27T18:17:51.887Z,2.40
2019-04-27T18:20:28.816Z,2.57
2019-04-27T18:23:16.159Z,2.30
2019-04-27T18:25:49.506Z,2.60
2019-04-27T18:28:19.750Z,2.50
2019-04-27T18:30:59.087Z,1.70
2019-04-27T18:33:28.435Z,1.90
2019-04-27T18:36:05.038Z,2.73
2019-04-27T18:38:30.887Z,1.90
2019-04-27T18:40:58.897Z,1.80
2019-04-27T18:43:28.624Z,1.67
2019-04-27T18:45:58.707Z,1.43
2019-04-27T18:48:29.037Z,2.13
2019-04-27T18:51:11.457Z,2.20
2019-04-27T18:53:40.134Z,3.00
2019-04-27T18:56:10.436Z,3.13
2019-04-27T18:58:39.226Z,2.40
2019-04-27T19:01:08.626Z,2.10
2019-04-27T19:03:39.146Z,1.93
2019-04-27T19:06:08.529Z,1.90
2019-04-27T19:08:38.603Z,1.50
2019-04-27T19:11:09.074Z,1.40
2019-04-27T19:13:38.183Z,1.27
2019-04-27T19:16:08.983Z,1.57
2019-04-27T19:18:37.801Z,1.30
2019-04-27T19:21:08.801Z,1.60
2019-04-27T19:23:38.198Z,1.20
2019-04-27T19:26:09.543Z,1.30
2019-04-27T19:28:48.100Z,1.40
2019-04-27T19:31:29.009Z,1.60
2019-04-27T19:33:57.447Z,1.87
2019-04-27T19:36:27.960Z,1.60
2019-04-27T19:38:58.355Z,2.30
2019-04-27T19:41:28.839Z,2.33
2019-04-27T19:43:57.618Z,2.00
2019-04-27T19:46:26.306Z,1.90
2019-04-27T19:48:54.934Z,1.77
2019-04-27T19:51:23.619Z,1.83
2019-04-27T19:53:52.299Z,1.60
2019-04-27T19:56:21.476Z,1.90
2019-04-27T19:58:51.791Z,2.47
2019-04-27T20:01:28.232Z,2.93
2019-04-27T20:03:59.731Z,1.90
2019-04-27T20:06:29.259Z,2.00
2019-04-27T20:08:59.742Z,1.70
2019-04-27T20:11:28.701Z,1.90
2019-04-27T20:13:57.369Z,2.10
2019-04-27T20:16:26.002Z,1.70
2019-04-27T20:18:54.682Z,1.50
2019-04-27T20:21:23.363Z,1.53
2019-04-27T20:23:52.098Z,1.50
2019-04-27T20:26:20.774Z,1.50
2019-04-27T20:28:51.269Z,1.30
2019-04-27T20:31:19.909Z,1.60
2019-04-27T20:33:48.860Z,1.60
2019-04-27T20:36:17.542Z,1.40
2019-04-27T20:38:46.402Z,1.40
2019-04-27T20:41:15.078Z,1.60
2019-04-27T20:43:43.755Z,1.43
2019-04-27T20:46:12.467Z,1.40
2019-04-27T20:48:41.653Z,1.40
2019-04-27T20:51:11.372Z,1.50
2019-04-27T20:53:42.166Z,1.70
2019-04-27T20:56:10.852Z,1.67
2019-04-27T20:58:41.038Z,1.50
2019-04-27T21:01:10.438Z,1.87
2019-04-27T21:03:46.476Z,1.83
2019-04-27T21:06:26.406Z,1.80
2019-04-27T21:08:55.062Z,1.73
2019-04-27T21:11:23.662Z,1.60
2019-04-27T21:13:53.624Z,1.57
2019-04-27T21:16:22.634Z,1.93
2019-04-27T21:18:53.106Z,1.60
2019-04-27T21:21:22.242Z,1.70
2019-04-27T21:23:51.537Z,1.57
2019-04-27T21:26:21.453Z,1.63
2019-04-27T21:28:51.347Z,1.90
2019-04-27T21:31:21.297Z,1.80
2019-04-27T21:33:50.110Z,2.00
2019-04-27T21:36:18.741Z,1.73
2019-04-27T21:38:47.342Z,1.77
2019-04-27T21:41:15.954Z,1.70
2019-04-27T21:43:44.682Z,1.80
2019-04-27T21:46:13.364Z,1.90
2019-04-27T21:48:42.046Z,1.80
2019-04-27T21:51:11.832Z,1.87
2019-04-27T21:53:48.718Z,1.50
2019-04-27T21:56:17.551Z,1.90
2019-04-27T21:58:46.222Z,1.67
2019-04-27T22:01:21.510Z,1.67
2019-04-27T22:03:50.613Z,1.60
2019-04-27T22:06:21.144Z,1.60
2019-04-27T22:08:51.137Z,1.70
2019-04-27T22:11:21.832Z,1.67
2019-04-27T22:13:51.188Z,1.50
2019-04-27T22:16:21.294Z,1.50
2019-04-27T22:18:51.964Z,1.40
2019-04-27T22:21:21.623Z,1.60
2019-04-27T22:23:52.122Z,1.63
2019-04-27T22:26:21.440Z,1.43
2019-04-27T22:28:52.049Z,1.70
2019-04-27T22:31:21.235Z,1.80
2019-04-27T22:33:52.534Z,1.60
2019-04-27T22:36:21.221Z,1.40
2019-04-27T22:38:51.620Z,2.10
2019-04-27T22:41:34.388Z,1.80
2019-04-27T22:44:04.800Z,1.40
2019-04-27T22:46:35.037Z,1.60
2019-04-27T22:49:03.841Z,1.87
2019-04-27T22:51:32.518Z,1.90
2019-04-27T22:54:01.364Z,1.83
2019-04-27T22:56:32.048Z,1.87
2019-04-27T22:59:05.089Z,1.70
2019-04-27T23:01:45.035Z,1.97
2019-04-27T23:04:15.359Z,1.80
2019-04-27T23:06:44.031Z,1.87
2019-04-27T23:09:13.917Z,1.47
2019-04-27T23:11:42.630Z,1.50
2019-04-27T23:14:11.303Z,1.87
2019-04-27T23:16:42.205Z,1.90
2019-04-27T23:19:10.991Z,1.50
2019-04-27T23:21:39.694Z,1.67
2019-04-27T23:24:08.389Z,1.90
2019-04-27T23:26:36.998Z,1.70
2019-04-27T23:29:13.584Z,2.13
2019-04-27T23:31:38.111Z,1.90
2019-04-27T23:34:07.619Z,2.13
2019-04-27T23:36:36.293Z,1.77
2019-04-27T23:39:07.319Z,1.80
2019-04-27T23:41:36.065Z,2.00
2019-04-27T23:44:04.945Z,1.60
2019-04-27T23:46:34.068Z,1.93
2019-04-27T23:49:02.814Z,1.73
2019-04-27T23:51:49.458Z,1.70
2019-04-27T23:54:18.129Z,1.67
2019-04-27T23:56:47.122Z,1.70
2019-04-27T23:59:24.726Z,1.80
